Terminal Aerodrome Forecast
Issued by NWS Louisville, KY

Home | Current Version | Previous Version | Text Only | Print | Product List | Glossary On
Versions: 1 2 3 4 5 6 7 8 9 10 11 12 13 14 15 16 17 18 19 20
000
FTUS43 KLMK 270400 AAB
TAFBWG
TAF AMD
KBWG 270409Z 2704/2724 32005KT 5SM -SN OVC009
     FM270700 32005KT 6SM -SN OVC021
     FM271000 32006KT P6SM BKN025
     FM271300 31008KT P6SM SCT030=

USA.gov is the U.S. government's official web portal to all federal, state and local government web resources and services.